Cottonwd Hgts, Utah
Current Conditions -  °F | °C
As of 7:53 AM on Sunday 23 Nov 2014 (Local Time) from KSLC Reporting Station
Light Snow Light Snow  
Wind Chill: 25°   Ceiling: 3000
Heat Index: 32°   Visibility: 10mi
Dew Point: 29°   Wind: 8mph
Humidity: 88%   Direction: 30°NNE
Pressure: 30.16"   Gusts: NA
Location:  40.615°N, 111.891°W
Report Text: KSLC 231453Z 03007KT 10SM -SN FEW020 BKN030 00/M02 A3016 RMK AO2 SLP222 VIS E-SE 2 P0001 60001 T00001017 51019
Loading
Personal Weather Stations






























Interactive Weather Map New forecast layout! Learn more

10-Day Weather Forecast

Advertisements
Track Severe Weather on mobile